Horse Shoe Run, West Virginia
Current Conditions -  °F | °C
As of 3:00 PM on Sunday 23 Nov 2014 (Local Time) from K2G4 Reporting Station
Clear Clear  
Wind Chill: 54°   Ceiling: Unl
Heat Index: 54°   Visibility: 10mi
Dew Point: 32°   Wind: 15mph
Humidity: 44%   Direction: 150°SSE
Pressure: 29.95"   Gusts: 26mph
Location:  39.2905°N, 79.5107°W
Report Text: K2G4 232000Z AUTO 15013G23KT 10SM CLR 12/00 A2995 RMK AO1
Loading
Personal Weather Stations






























Interactive Weather Map New forecast layout! Learn more

10-Day Weather Forecast

Advertisements
Track Severe Weather on mobile